createdAt,value
2019-02-06T00:00:48.640Z,9.50
2019-02-06T00:01:48.657Z,8.70
2019-02-06T00:02:48.667Z,9.40
2019-02-06T00:03:48.678Z,9.60
2019-02-06T00:04:48.692Z,9.60
2019-02-06T00:05:48.704Z,9.40
2019-02-06T00:06:48.716Z,9.30
2019-02-06T00:07:48.728Z,9.70
2019-02-06T00:08:48.740Z,9.40
2019-02-06T00:09:48.754Z,8.60
2019-02-06T00:10:48.766Z,9.00
2019-02-06T00:11:48.778Z,9.50
2019-02-06T00:12:48.791Z,8.80
2019-02-06T00:13:48.804Z,8.80
2019-02-06T00:14:48.827Z,9.30
2019-02-06T00:15:48.865Z,9.60
2019-02-06T00:16:48.870Z,8.60
2019-02-06T00:17:48.858Z,8.60
2019-02-06T00:18:48.875Z,9.20
2019-02-06T00:19:48.881Z,9.10
2019-02-06T00:20:48.891Z,8.80
2019-02-06T00:21:49.014Z,8.80
2019-02-06T00:22:48.918Z,8.50
2019-02-06T00:23:48.932Z,9.00
2019-02-06T00:24:48.965Z,9.10
2019-02-06T00:25:48.957Z,8.60
2019-02-06T00:26:48.969Z,9.20
2019-02-06T00:27:48.982Z,9.30
2019-02-06T00:28:48.994Z,9.70
2019-02-06T00:29:49.007Z,9.40
2019-02-06T00:30:49.019Z,9.10
2019-02-06T00:31:49.036Z,9.40
2019-02-06T00:32:49.044Z,9.10
2019-02-06T00:33:49.061Z,8.80
2019-02-06T00:34:49.068Z,8.70
2019-02-06T00:35:49.081Z,9.10
2019-02-06T00:36:49.096Z,9.30
2019-02-06T00:37:49.106Z,9.10
2019-02-06T00:38:49.120Z,9.80
2019-02-06T00:39:49.131Z,9.00
2019-02-06T00:40:49.143Z,8.90
2019-02-06T00:41:49.157Z,9.20
2019-02-06T00:42:49.170Z,8.40
2019-02-06T00:43:49.185Z,8.80
2019-02-06T00:44:49.196Z,9.50
2019-02-06T00:45:49.207Z,8.90
2019-02-06T00:46:49.221Z,8.80
2019-02-06T00:47:49.230Z,8.70
2019-02-06T00:48:49.245Z,9.20
2019-02-06T00:49:49.335Z,9.20
2019-02-06T00:50:49.269Z,9.10
2019-02-06T00:51:49.281Z,9.30
2019-02-06T00:52:49.296Z,9.50
2019-02-06T00:53:49.307Z,9.00
2019-02-06T00:54:49.319Z,8.70
2019-02-06T00:55:49.333Z,8.60
2019-02-06T00:56:49.351Z,8.60
2019-02-06T00:57:49.357Z,9.20
2019-02-06T00:58:49.372Z,8.90
2019-02-06T00:59:49.385Z,9.10
2019-02-06T01:00:49.396Z,9.50
2019-02-06T01:01:49.409Z,8.70
2019-02-06T01:02:49.421Z,8.80
2019-02-06T01:03:49.435Z,9.30
2019-02-06T01:04:49.446Z,9.10
2019-02-06T01:05:49.459Z,9.60
2019-02-06T01:06:49.473Z,8.90
2019-02-06T01:07:49.485Z,8.90
2019-02-06T01:08:49.497Z,9.60
2019-02-06T01:09:49.509Z,8.30
2019-02-06T01:10:49.523Z,8.60
2019-02-06T01:11:49.530Z,8.70
2019-02-06T01:12:49.545Z,9.20
2019-02-06T01:13:49.562Z,8.70
2019-02-06T01:14:49.570Z,8.90
2019-02-06T01:15:49.582Z,8.70
2019-02-06T01:16:49.596Z,8.60
2019-02-06T01:17:49.613Z,9.20
2019-02-06T01:18:49.621Z,8.90
2019-02-06T01:19:49.630Z,8.90
2019-02-06T01:20:49.644Z,8.60
2019-02-06T01:21:49.656Z,8.50
2019-02-06T01:22:49.670Z,8.40
2019-02-06T01:23:49.682Z,8.00
2019-02-06T01:24:49.694Z,9.20
2019-02-06T01:25:49.708Z,8.70
2019-02-06T01:26:49.719Z,9.60
2019-02-06T01:27:49.729Z,9.00
2019-02-06T01:28:49.743Z,8.90
2019-02-06T01:29:49.757Z,8.40
2019-02-06T01:30:49.769Z,8.10
2019-02-06T01:31:49.779Z,8.50
2019-02-06T01:32:49.791Z,8.70
2019-02-06T01:33:49.808Z,9.00
2019-02-06T01:34:49.819Z,7.90
2019-02-06T01:35:50.386Z,9.00
2019-02-06T01:36:49.844Z,7.80
2019-02-06T01:37:49.856Z,8.30
2019-02-06T01:38:49.866Z,8.30
2019-02-06T01:39:49.879Z,8.50
2019-02-06T01:40:49.891Z,8.80
2019-02-06T01:41:49.904Z,8.90
2019-02-06T01:42:49.915Z,8.50
2019-02-06T01:43:49.929Z,8.50
2019-02-06T01:44:49.941Z,8.70
2019-02-06T01:45:49.953Z,8.90
2019-02-06T01:46:49.965Z,9.20
2019-02-06T01:47:49.977Z,8.60
2019-02-06T01:48:49.992Z,8.70
2019-02-06T01:49:50.005Z,8.60
2019-02-06T01:50:50.015Z,8.30
2019-02-06T01:51:50.030Z,8.20
2019-02-06T01:52:50.040Z,7.90
2019-02-06T01:53:50.051Z,8.80
2019-02-06T01:54:50.065Z,8.30
2019-02-06T01:55:50.076Z,8.10
2019-02-06T01:56:50.092Z,8.00
2019-02-06T01:57:50.141Z,7.80
2019-02-06T01:58:50.117Z,8.40
2019-02-06T01:59:50.125Z,8.40
2019-02-06T02:00:50.233Z,8.90
2019-02-06T02:01:50.226Z,8.60
2019-02-06T02:02:50.230Z,7.90
2019-02-06T02:03:50.223Z,8.20
2019-02-06T02:04:50.228Z,8.20
2019-02-06T02:06:01.349Z,8.50
2019-02-06T02:06:50.281Z,8.00
2019-02-06T02:07:50.288Z,8.20
2019-02-06T02:08:50.287Z,7.80
2019-02-06T02:09:50.287Z,8.20
2019-02-06T02:10:50.284Z,8.70
2019-02-06T02:11:50.279Z,8.90
2019-02-06T02:12:50.291Z,8.20
2019-02-06T02:13:50.299Z,8.70
2019-02-06T02:14:50.311Z,7.80
2019-02-06T02:15:50.326Z,7.80
2019-02-06T02:16:50.338Z,7.80
2019-02-06T02:17:50.352Z,8.30
2019-02-06T02:18:50.364Z,9.20
2019-02-06T02:19:50.375Z,8.50
2019-02-06T02:20:50.388Z,8.70
2019-02-06T02:21:50.399Z,8.00
2019-02-06T02:22:50.410Z,8.30
2019-02-06T02:23:50.421Z,8.80
2019-02-06T02:24:50.434Z,7.80
2019-02-06T02:25:50.447Z,8.10
2019-02-06T02:26:50.459Z,8.80
2019-02-06T02:27:50.475Z,8.50
2019-02-06T02:28:50.485Z,8.50
2019-02-06T02:29:50.497Z,8.80
2019-02-06T02:30:50.682Z,8.90
2019-02-06T02:31:50.531Z,8.20
2019-02-06T02:32:50.532Z,9.00
2019-02-06T02:33:50.545Z,8.70
2019-02-06T02:34:50.558Z,8.60
2019-02-06T02:35:50.571Z,9.10
2019-02-06T02:36:50.583Z,8.50
2019-02-06T02:37:50.594Z,8.70
2019-02-06T02:38:50.608Z,8.40
2019-02-06T02:39:50.626Z,8.90
2019-02-06T02:40:50.630Z,8.30
2019-02-06T02:41:50.645Z,9.00
2019-02-06T02:42:50.656Z,8.70
2019-02-06T02:43:50.678Z,9.20
2019-02-06T02:44:50.683Z,9.60
2019-02-06T02:45:50.692Z,8.60
2019-02-06T02:46:50.707Z,9.20
2019-02-06T02:47:50.725Z,9.00
2019-02-06T02:48:50.730Z,9.10
2019-02-06T02:49:50.743Z,8.60
2019-02-06T02:50:50.757Z,8.90
2019-02-06T02:51:50.766Z,8.60
2019-02-06T02:52:50.780Z,8.40
2019-02-06T02:53:50.791Z,8.70
2019-02-06T02:54:50.816Z,8.70
2019-02-06T02:55:50.815Z,9.00
2019-02-06T02:56:50.829Z,9.10
2019-02-06T02:57:50.842Z,8.80
2019-02-06T02:58:50.855Z,8.60
2019-02-06T02:59:50.868Z,9.70
2019-02-06T03:00:50.881Z,8.80
2019-02-06T03:01:50.900Z,9.50
2019-02-06T03:02:50.912Z,9.40
2019-02-06T03:03:50.921Z,8.70
2019-02-06T03:04:50.935Z,9.20
2019-02-06T03:05:50.944Z,9.10
2019-02-06T03:06:50.953Z,8.90
2019-02-06T03:07:50.966Z,10.10
2019-02-06T03:08:50.981Z,9.40
2019-02-06T03:09:50.997Z,10.00
2019-02-06T03:10:51.014Z,9.00
2019-02-06T03:11:51.022Z,9.30
2019-02-06T03:12:51.032Z,9.80
2019-02-06T03:13:51.042Z,8.70
2019-02-06T03:14:51.057Z,9.70
2019-02-06T03:15:51.069Z,9.20
2019-02-06T03:16:51.079Z,9.10
2019-02-06T03:17:51.097Z,9.80
2019-02-06T03:18:51.104Z,8.50
2019-02-06T03:19:51.116Z,9.80
2019-02-06T03:20:51.130Z,8.70
2019-02-06T03:21:51.142Z,9.40
2019-02-06T03:22:51.155Z,9.30
2019-02-06T03:23:51.176Z,9.80
2019-02-06T03:24:51.181Z,10.10
2019-02-06T03:25:51.194Z,10.40
2019-02-06T03:26:51.205Z,9.10
2019-02-06T03:27:51.215Z,10.00
2019-02-06T03:28:51.235Z,10.10
2019-02-06T03:29:51.243Z,10.60
2019-02-06T03:30:51.452Z,10.00
2019-02-06T03:31:51.269Z,10.50
2019-02-06T03:32:51.280Z,10.40
2019-02-06T03:33:51.293Z,9.80
2019-02-06T03:34:51.307Z,10.10
2019-02-06T03:35:51.318Z,11.00
2019-02-06T03:36:51.341Z,10.90
2019-02-06T03:37:51.346Z,10.30
2019-02-06T03:38:51.354Z,10.00
2019-02-06T03:39:51.369Z,10.70
2019-02-06T03:40:51.462Z,9.30
2019-02-06T03:41:51.394Z,10.30
2019-02-06T03:42:51.406Z,9.30
2019-02-06T03:43:51.419Z,10.50
2019-02-06T03:44:51.432Z,10.20
2019-02-06T03:45:51.442Z,9.70
2019-02-06T03:46:51.469Z,10.90
2019-02-06T03:47:51.468Z,10.00
2019-02-06T03:48:51.481Z,10.10
2019-02-06T03:49:51.497Z,10.00
2019-02-06T03:50:51.513Z,10.60
2019-02-06T03:51:51.520Z,10.60
2019-02-06T03:52:51.533Z,9.70
2019-02-06T03:53:51.547Z,9.80
2019-02-06T03:54:51.562Z,9.90
2019-02-06T03:55:51.569Z,10.40
2019-02-06T03:56:51.582Z,9.70
2019-02-06T03:57:51.595Z,11.10
2019-02-06T03:58:51.612Z,12.30
2019-02-06T03:59:51.620Z,10.30
2019-02-06T04:00:51.635Z,10.90
2019-02-06T04:01:51.646Z,11.00
2019-02-06T04:02:51.658Z,10.20
2019-02-06T04:03:51.676Z,11.10
2019-02-06T04:04:51.685Z,11.40
2019-02-06T04:05:51.696Z,11.30
2019-02-06T04:06:54.987Z,11.50
2019-02-06T04:07:51.721Z,11.90
2019-02-06T04:08:51.736Z,12.60
2019-02-06T04:09:51.747Z,11.70
2019-02-06T04:10:51.760Z,10.80
2019-02-06T04:11:51.771Z,11.60
2019-02-06T04:12:51.786Z,12.60
2019-02-06T04:13:51.796Z,11.50
2019-02-06T04:14:51.810Z,12.50
2019-02-06T04:15:51.822Z,12.30
2019-02-06T04:16:51.835Z,12.30
2019-02-06T04:17:54.382Z,12.70
2019-02-06T04:18:51.861Z,13.00
2019-02-06T04:19:51.874Z,13.40
2019-02-06T04:20:51.887Z,12.30
2019-02-06T04:21:51.901Z,13.40
2019-02-06T04:22:51.910Z,12.90
2019-02-06T04:23:51.925Z,14.60
2019-02-06T04:24:51.936Z,13.20
2019-02-06T04:25:51.964Z,14.50
2019-02-06T04:26:51.982Z,14.30
2019-02-06T04:27:52.056Z,15.30
2019-02-06T04:28:52.047Z,14.90
2019-02-06T04:29:52.038Z,15.30
2019-02-06T04:30:52.045Z,15.70
2019-02-06T04:31:52.105Z,15.20
2019-02-06T04:32:52.098Z,16.60
2019-02-06T04:33:52.088Z,14.60
2019-02-06T04:34:52.100Z,15.50
2019-02-06T04:35:52.100Z,15.30
2019-02-06T04:36:52.094Z,15.90
2019-02-06T04:37:52.093Z,16.50
2019-02-06T04:38:52.121Z,16.50
2019-02-06T04:39:52.119Z,16.30
2019-02-06T04:40:52.132Z,16.30
2019-02-06T04:41:52.143Z,17.30
2019-02-06T04:42:52.159Z,17.30
2019-02-06T04:43:52.166Z,16.20
2019-02-06T04:44:52.180Z,17.10
2019-02-06T04:45:52.190Z,17.00
2019-02-06T04:46:52.200Z,16.40
2019-02-06T04:47:52.212Z,15.70
2019-02-06T04:48:52.226Z,16.60
2019-02-06T04:49:52.238Z,16.80
2019-02-06T04:50:52.250Z,18.00
2019-02-06T04:51:52.261Z,16.70
2019-02-06T04:52:52.271Z,16.60
2019-02-06T04:53:52.282Z,17.40
2019-02-06T04:54:52.294Z,17.90
2019-02-06T04:55:52.306Z,16.50
2019-02-06T04:56:52.318Z,17.20
2019-02-06T04:57:52.337Z,17.40
2019-02-06T04:58:52.342Z,18.80
2019-02-06T04:59:52.353Z,17.30
2019-02-06T05:00:52.369Z,18.40
2019-02-06T05:01:52.383Z,16.70
2019-02-06T05:02:52.389Z,17.90
2019-02-06T05:03:52.399Z,18.70
2019-02-06T05:04:52.413Z,18.00
2019-02-06T05:05:52.423Z,18.60
2019-02-06T05:06:52.434Z,16.90
2019-02-06T05:07:52.444Z,16.50
2019-02-06T05:08:52.457Z,18.20
2019-02-06T05:09:52.469Z,17.70
2019-02-06T05:10:52.479Z,18.70
2019-02-06T05:11:52.488Z,18.60
2019-02-06T05:12:52.499Z,18.20
2019-02-06T05:13:52.512Z,19.20
2019-02-06T05:14:52.527Z,18.10
2019-02-06T05:15:52.535Z,17.40
2019-02-06T05:16:52.557Z,18.80
2019-02-06T05:17:55.697Z,16.90
2019-02-06T05:18:52.588Z,18.00
2019-02-06T05:19:52.581Z,18.40
2019-02-06T05:20:52.605Z,17.60
2019-02-06T05:21:52.601Z,17.50
2019-02-06T05:22:52.610Z,17.80
2019-02-06T05:23:52.621Z,17.60
2019-02-06T05:24:52.634Z,19.00
2019-02-06T05:25:52.650Z,19.20
2019-02-06T05:26:52.654Z,20.70
2019-02-06T05:27:52.665Z,19.70
2019-02-06T05:28:52.676Z,20.20
2019-02-06T05:29:52.685Z,19.70
2019-02-06T05:30:52.698Z,19.70
2019-02-06T05:31:52.710Z,20.30
2019-02-06T05:32:52.718Z,20.50
2019-02-06T05:33:52.731Z,18.70
2019-02-06T05:34:52.741Z,17.80
2019-02-06T05:35:52.750Z,17.60
2019-02-06T05:36:52.773Z,18.90
2019-02-06T05:37:52.773Z,20.40
2019-02-06T05:38:52.783Z,18.80
2019-02-06T05:39:52.794Z,19.40
2019-02-06T05:40:52.805Z,19.00
2019-02-06T05:41:52.820Z,19.90
2019-02-06T05:42:52.968Z,19.30
2019-02-06T05:43:52.835Z,19.60
2019-02-06T05:44:52.845Z,21.20
2019-02-06T05:45:52.857Z,20.90
2019-02-06T05:46:52.867Z,20.80
2019-02-06T05:47:52.878Z,20.90
2019-02-06T05:48:52.888Z,21.00
2019-02-06T05:49:52.899Z,20.50
2019-02-06T05:50:52.909Z,19.60
2019-02-06T05:51:52.916Z,19.70
2019-02-06T05:52:52.932Z,19.60
2019-02-06T05:53:52.937Z,20.00
2019-02-06T05:54:52.951Z,21.00
2019-02-06T05:55:52.958Z,21.90
2019-02-06T05:56:52.969Z,21.00
2019-02-06T05:57:52.982Z,20.90
2019-02-06T05:58:52.995Z,21.30
2019-02-06T05:59:53.001Z,21.00
2019-02-06T06:00:53.011Z,21.90
2019-02-06T06:01:53.024Z,20.50
2019-02-06T06:02:53.035Z,22.10
2019-02-06T06:03:53.044Z,20.80
2019-02-06T06:04:53.052Z,20.00
2019-02-06T06:05:53.065Z,21.70
2019-02-06T06:06:53.073Z,21.00
2019-02-06T06:07:53.082Z,22.90
2019-02-06T06:08:53.113Z,22.10
2019-02-06T06:09:53.108Z,21.20
2019-02-06T06:10:53.129Z,20.10
2019-02-06T06:11:53.124Z,20.90
2019-02-06T06:12:53.135Z,22.40
2019-02-06T06:13:53.144Z,22.90
2019-02-06T06:14:53.154Z,22.20
2019-02-06T06:15:53.164Z,22.50
2019-02-06T06:16:53.175Z,23.50
2019-02-06T06:17:53.185Z,23.70
2019-02-06T06:18:53.194Z,23.40
2019-02-06T06:19:53.203Z,22.90
2019-02-06T06:20:53.213Z,23.60
2019-02-06T06:21:53.225Z,23.70
2019-02-06T06:22:53.237Z,24.50
2019-02-06T06:23:53.247Z,25.00
2019-02-06T06:24:53.253Z,22.90
2019-02-06T06:25:53.271Z,24.70
2019-02-06T06:26:53.274Z,23.90
2019-02-06T06:27:53.284Z,23.70
2019-02-06T06:28:53.301Z,22.60
2019-02-06T06:29:53.306Z,24.30
2019-02-06T06:30:53.313Z,23.50
2019-02-06T06:31:53.323Z,24.40
2019-02-06T06:32:53.334Z,23.00
2019-02-06T06:33:53.343Z,25.20
2019-02-06T06:34:53.359Z,23.80
2019-02-06T06:35:53.361Z,24.50
2019-02-06T06:36:56.615Z,24.60
2019-02-06T06:37:59.963Z,25.20
2019-02-06T06:38:53.393Z,26.40
2019-02-06T06:39:53.404Z,25.50
2019-02-06T06:40:53.411Z,25.60
2019-02-06T06:41:53.421Z,24.70
2019-02-06T06:42:53.430Z,26.20
2019-02-06T06:43:53.441Z,27.60
2019-02-06T06:44:53.451Z,25.60
2019-02-06T06:45:53.462Z,25.60
2019-02-06T06:46:53.471Z,26.20
2019-02-06T06:47:53.479Z,26.80
2019-02-06T06:48:53.492Z,26.30
2019-02-06T06:49:53.581Z,26.80
2019-02-06T06:50:53.515Z,26.30
2019-02-06T06:51:53.519Z,28.00
2019-02-06T06:52:53.531Z,27.70
2019-02-06T06:53:53.540Z,30.00
2019-02-06T06:54:53.548Z,28.00
2019-02-06T06:55:53.558Z,28.00
2019-02-06T06:56:53.568Z,29.40
2019-02-06T06:57:53.576Z,28.30
2019-02-06T06:58:53.589Z,28.10
2019-02-06T06:59:55.507Z,29.40
2019-02-06T07:00:53.606Z,29.80
2019-02-06T07:01:53.616Z,30.30
2019-02-06T07:02:53.630Z,31.30
2019-02-06T07:03:53.635Z,31.30
2019-02-06T07:04:53.648Z,32.10
2019-02-06T07:05:53.668Z,31.40
2019-02-06T07:06:53.665Z,31.20
2019-02-06T07:07:53.695Z,33.10
2019-02-06T07:08:53.685Z,32.20
2019-02-06T07:09:53.694Z,33.20
2019-02-06T07:10:53.712Z,31.50
2019-02-06T07:11:53.714Z,31.90
2019-02-06T07:12:53.725Z,33.30
2019-02-06T07:13:53.739Z,32.80
2019-02-06T07:14:53.831Z,32.20
2019-02-06T07:15:53.835Z,34.20
2019-02-06T07:16:53.829Z,33.60
2019-02-06T07:17:53.827Z,31.90
2019-02-06T07:18:53.839Z,34.20
2019-02-06T07:19:53.829Z,32.60
2019-02-06T07:20:53.896Z,32.30
2019-02-06T07:21:53.894Z,31.80
2019-02-06T07:22:53.898Z,31.20
2019-02-06T07:23:53.882Z,31.20
2019-02-06T07:24:53.895Z,31.80
2019-02-06T07:25:53.882Z,31.30
2019-02-06T07:26:53.881Z,31.80
2019-02-06T07:27:53.887Z,30.20
2019-02-06T07:28:53.890Z,31.30
2019-02-06T07:29:53.898Z,31.20
2019-02-06T07:30:53.910Z,32.20
2019-02-06T07:31:53.921Z,29.90
2019-02-06T07:32:53.931Z,29.90
2019-02-06T07:33:53.942Z,29.90
2019-02-06T07:34:53.951Z,30.00
2019-02-06T07:35:53.961Z,29.90
2019-02-06T07:36:53.972Z,29.20
2019-02-06T07:37:53.984Z,28.80
2019-02-06T07:38:53.993Z,28.50
2019-02-06T07:39:54.005Z,28.00
2019-02-06T07:40:54.014Z,27.40
2019-02-06T07:41:54.025Z,27.10
2019-02-06T07:42:54.035Z,28.10
2019-02-06T07:43:54.043Z,26.40
2019-02-06T07:44:54.054Z,26.30
2019-02-06T07:45:54.068Z,27.90
2019-02-06T07:46:54.077Z,26.40
2019-02-06T07:47:54.088Z,25.40
2019-02-06T07:48:54.099Z,26.60
2019-02-06T07:49:54.110Z,25.90
2019-02-06T07:50:54.122Z,24.00
2019-02-06T07:51:54.135Z,26.10
2019-02-06T07:52:54.140Z,25.50
2019-02-06T07:53:54.152Z,26.50
2019-02-06T07:54:54.164Z,26.90
2019-02-06T07:55:54.171Z,25.40
2019-02-06T07:56:54.185Z,25.30
2019-02-06T07:57:54.195Z,25.30
2019-02-06T07:58:54.204Z,26.50
2019-02-06T07:59:54.216Z,25.60
2019-02-06T08:00:54.225Z,25.40
2019-02-06T08:01:54.238Z,26.30
2019-02-06T08:02:54.254Z,26.00
2019-02-06T08:03:54.263Z,24.90
2019-02-06T08:04:54.270Z,25.80
2019-02-06T08:05:54.284Z,24.80
2019-02-06T08:06:54.292Z,25.90
2019-02-06T08:07:54.303Z,25.50
2019-02-06T08:08:54.315Z,24.90
2019-02-06T08:09:54.324Z,24.60
2019-02-06T08:10:54.338Z,25.50
2019-02-06T08:11:54.349Z,23.90
2019-02-06T08:12:54.357Z,24.70
2019-02-06T08:13:54.372Z,24.60
2019-02-06T08:14:54.379Z,25.40
2019-02-06T08:15:54.388Z,25.70
2019-02-06T08:16:54.398Z,24.50
2019-02-06T08:17:54.412Z,23.70
2019-02-06T08:18:54.524Z,24.10
2019-02-06T08:19:54.436Z,24.50
2019-02-06T08:20:54.445Z,24.10
2019-02-06T08:21:54.456Z,24.40
2019-02-06T08:22:54.467Z,25.40
2019-02-06T08:23:54.478Z,24.20
2019-02-06T08:24:54.488Z,24.40
2019-02-06T08:25:54.500Z,24.80
2019-02-06T08:26:54.511Z,23.70
2019-02-06T08:27:54.525Z,23.90
2019-02-06T08:28:54.533Z,22.70
2019-02-06T08:29:54.544Z,24.20
2019-02-06T08:30:54.555Z,23.80
2019-02-06T08:31:54.565Z,22.50
2019-02-06T08:32:54.576Z,24.30
2019-02-06T08:33:54.589Z,23.00
2019-02-06T08:34:54.600Z,24.40
2019-02-06T08:35:54.611Z,23.30
2019-02-06T08:36:54.622Z,23.80
2019-02-06T08:37:54.633Z,23.90
2019-02-06T08:38:55.677Z,23.20
2019-02-06T08:39:54.655Z,24.40
2019-02-06T08:40:54.666Z,23.20
2019-02-06T08:41:54.677Z,23.60
2019-02-06T08:42:54.691Z,23.80
2019-02-06T08:43:54.698Z,22.80
2019-02-06T08:44:54.710Z,22.20
2019-02-06T08:45:54.721Z,23.80
2019-02-06T08:46:54.738Z,22.50
2019-02-06T08:47:54.854Z,22.70
2019-02-06T08:48:54.754Z,23.30
2019-02-06T08:49:54.765Z,24.60
2019-02-06T08:50:54.779Z,23.70
2019-02-06T08:51:54.789Z,24.10
2019-02-06T08:52:54.802Z,23.50
2019-02-06T08:53:54.811Z,23.70
2019-02-06T08:54:54.824Z,23.30
2019-02-06T08:55:54.835Z,22.70
2019-02-06T08:56:54.845Z,23.00
2019-02-06T08:57:54.859Z,22.30
2019-02-06T08:58:54.867Z,23.20
2019-02-06T08:59:54.878Z,22.30
2019-02-06T09:00:54.891Z,21.50
2019-02-06T09:01:54.900Z,22.90
2019-02-06T09:02:54.915Z,23.50
2019-02-06T09:03:54.925Z,20.80
2019-02-06T09:04:56.142Z,21.90
2019-02-06T09:05:54.948Z,21.60
2019-02-06T09:06:54.973Z,25.30
2019-02-06T09:07:54.970Z,21.40
2019-02-06T09:08:59.791Z,21.00
2019-02-06T09:09:54.996Z,21.80
2019-02-06T09:10:55.006Z,21.00
2019-02-06T09:11:55.016Z,20.30
2019-02-06T09:12:55.037Z,21.50
2019-02-06T09:13:55.041Z,20.00
2019-02-06T09:14:55.053Z,21.90
2019-02-06T09:15:55.076Z,19.90
2019-02-06T09:16:55.079Z,19.10
2019-02-06T09:17:55.089Z,20.10
2019-02-06T09:18:55.100Z,20.90
2019-02-06T09:19:55.112Z,19.30
2019-02-06T09:20:55.123Z,19.90
2019-02-06T09:21:55.134Z,20.60
2019-02-06T09:22:55.147Z,19.00
2019-02-06T09:23:55.162Z,18.90
2019-02-06T09:24:55.169Z,19.70
2019-02-06T09:25:57.409Z,20.00
2019-02-06T09:26:55.197Z,18.80
2019-02-06T09:27:55.207Z,18.10
2019-02-06T09:28:55.220Z,20.10
2019-02-06T09:29:55.232Z,18.10
2019-02-06T09:30:55.243Z,18.80
2019-02-06T09:31:55.259Z,18.20
2019-02-06T09:32:55.270Z,18.60
2019-02-06T09:33:55.279Z,17.30
2019-02-06T09:34:55.294Z,18.70
2019-02-06T09:35:55.304Z,17.70
2019-02-06T09:36:55.317Z,18.00
2019-02-06T09:37:55.332Z,19.40
2019-02-06T09:38:55.346Z,18.50
2019-02-06T09:39:55.355Z,17.80
2019-02-06T09:40:55.369Z,18.40
2019-02-06T09:41:55.376Z,17.30
2019-02-06T09:42:55.395Z,17.60
2019-02-06T09:43:55.403Z,18.20
2019-02-06T09:44:55.414Z,17.90
2019-02-06T09:45:57.140Z,18.30
2019-02-06T09:46:55.441Z,16.90
2019-02-06T09:47:55.452Z,17.60
2019-02-06T09:48:55.466Z,18.40
2019-02-06T09:49:55.478Z,17.10
2019-02-06T09:50:55.490Z,18.30
2019-02-06T09:51:55.507Z,18.00
2019-02-06T09:52:55.536Z,16.80
2019-02-06T09:53:55.528Z,16.40
2019-02-06T09:54:55.565Z,17.70
2019-02-06T09:55:55.622Z,16.90
2019-02-06T09:56:55.630Z,17.90
2019-02-06T09:57:55.627Z,17.10
2019-02-06T09:58:55.630Z,17.50
2019-02-06T09:59:55.631Z,17.30
2019-02-06T10:00:55.692Z,16.30
2019-02-06T10:01:55.687Z,15.90
2019-02-06T10:02:55.683Z,16.40
2019-02-06T10:03:55.688Z,16.10
2019-02-06T10:04:55.691Z,15.80
2019-02-06T10:05:55.708Z,16.10
2019-02-06T10:06:55.700Z,15.50
2019-02-06T10:07:55.714Z,16.30
2019-02-06T10:08:55.728Z,16.60
2019-02-06T10:09:57.931Z,15.40
2019-02-06T10:10:55.761Z,15.40
2019-02-06T10:11:55.769Z,15.30
2019-02-06T10:12:55.785Z,16.10
2019-02-06T10:13:55.795Z,15.30
2019-02-06T10:14:55.811Z,15.40
2019-02-06T10:15:55.825Z,14.90
2019-02-06T10:16:55.840Z,15.30
2019-02-06T10:17:55.855Z,16.20
2019-02-06T10:18:55.868Z,16.30
2019-02-06T10:19:55.882Z,14.80
2019-02-06T10:20:55.896Z,14.40
2019-02-06T10:21:55.910Z,14.50
2019-02-06T10:22:55.923Z,14.50
2019-02-06T10:23:55.937Z,13.80
2019-02-06T10:24:55.951Z,15.40
2019-02-06T10:25:55.970Z,16.30
2019-02-06T10:26:55.982Z,14.30
2019-02-06T10:27:56.055Z,16.00
2019-02-06T10:28:56.010Z,15.40
2019-02-06T10:29:56.022Z,15.40
2019-02-06T10:30:56.036Z,14.00
2019-02-06T10:31:56.049Z,14.80
2019-02-06T10:32:56.064Z,13.60
2019-02-06T10:33:56.079Z,13.20
2019-02-06T10:34:56.093Z,12.60
2019-02-06T10:35:56.107Z,14.00
2019-02-06T10:36:56.122Z,13.20
2019-02-06T10:37:56.133Z,13.70
2019-02-06T10:38:56.150Z,13.80
2019-02-06T10:39:58.635Z,13.40
2019-02-06T10:40:56.175Z,13.20
2019-02-06T10:41:56.191Z,13.10
2019-02-06T10:42:56.203Z,13.00
2019-02-06T10:43:56.217Z,12.60
2019-02-06T10:44:56.234Z,12.90
2019-02-06T10:45:56.312Z,13.70
2019-02-06T10:46:56.261Z,12.90
2019-02-06T10:47:56.275Z,13.10
2019-02-06T10:48:56.289Z,13.70
2019-02-06T10:49:56.303Z,13.00
2019-02-06T10:50:58.222Z,13.50
2019-02-06T10:51:56.330Z,12.50
2019-02-06T10:52:56.345Z,12.70
2019-02-06T10:53:56.364Z,11.20
2019-02-06T10:54:56.375Z,12.40
2019-02-06T10:55:56.388Z,12.50
2019-02-06T10:56:56.404Z,12.20
2019-02-06T10:57:56.418Z,11.60
2019-02-06T10:58:56.432Z,12.00
2019-02-06T10:59:56.447Z,12.20
2019-02-06T11:00:56.460Z,11.60
2019-02-06T11:01:56.475Z,11.40
2019-02-06T11:02:56.491Z,11.60
2019-02-06T11:03:56.504Z,11.10
2019-02-06T11:04:56.520Z,10.50
2019-02-06T11:05:56.536Z,10.80
2019-02-06T11:06:56.551Z,11.30
2019-02-06T11:07:56.563Z,12.20
2019-02-06T11:08:56.591Z,12.10
2019-02-06T11:09:56.597Z,11.00
2019-02-06T11:10:56.610Z,11.10
2019-02-06T11:11:56.625Z,11.70
2019-02-06T11:12:56.639Z,12.10
2019-02-06T11:13:56.655Z,11.40
2019-02-06T11:14:56.670Z,11.40
2019-02-06T11:15:56.685Z,11.70
2019-02-06T11:16:56.700Z,10.30
2019-02-06T11:17:56.715Z,11.50
2019-02-06T11:18:56.731Z,10.40
2019-02-06T11:19:56.749Z,10.90
2019-02-06T11:20:56.760Z,10.70
2019-02-06T11:21:56.777Z,10.90
2019-02-06T11:22:56.790Z,10.80
2019-02-06T11:23:56.804Z,11.20
2019-02-06T11:24:56.820Z,11.40
2019-02-06T11:25:56.837Z,10.80
2019-02-06T11:26:56.851Z,10.70
2019-02-06T11:27:56.866Z,11.20
2019-02-06T11:28:56.882Z,10.30
2019-02-06T11:29:56.896Z,10.40
2019-02-06T11:30:57.206Z,10.50
2019-02-06T11:31:56.930Z,10.30
2019-02-06T11:32:56.945Z,10.00
2019-02-06T11:33:56.961Z,9.30
2019-02-06T11:34:56.975Z,10.70
2019-02-06T11:35:56.991Z,9.60
2019-02-06T11:36:57.008Z,9.30
2019-02-06T11:37:57.022Z,9.20
2019-02-06T11:38:57.041Z,9.10
2019-02-06T11:39:58.260Z,9.20
2019-02-06T11:40:57.073Z,8.50
2019-02-06T11:41:57.086Z,8.40
2019-02-06T11:42:57.105Z,9.20
2019-02-06T11:43:57.120Z,8.70
2019-02-06T11:44:57.137Z,8.80
2019-02-06T11:45:57.157Z,8.50
2019-02-06T11:46:57.168Z,9.10
2019-02-06T11:47:57.185Z,8.60
2019-02-06T11:48:57.201Z,8.80
2019-02-06T11:49:57.219Z,9.00
2019-02-06T11:50:57.238Z,9.20
2019-02-06T11:51:57.249Z,8.90
2019-02-06T11:52:57.267Z,9.60
2019-02-06T11:53:57.283Z,9.40
2019-02-06T11:54:57.301Z,8.90
2019-02-06T11:55:57.314Z,9.50
2019-02-06T11:56:57.331Z,9.10
2019-02-06T11:57:57.349Z,9.00
2019-02-06T11:58:57.365Z,8.50
2019-02-06T11:59:57.387Z,8.60
2019-02-06T12:00:57.429Z,7.90
2019-02-06T12:01:57.481Z,8.90
2019-02-06T12:02:57.488Z,8.70
2019-02-06T12:03:57.471Z,8.30
2019-02-06T12:04:57.541Z,8.30
2019-02-06T12:05:57.546Z,8.00
2019-02-06T12:06:57.534Z,9.00
2019-02-06T12:07:57.539Z,9.00
2019-02-06T12:08:57.535Z,8.00
2019-02-06T12:10:08.994Z,8.50
2019-02-06T12:10:57.559Z,8.50
2019-02-06T12:11:57.638Z,8.30
2019-02-06T12:12:57.590Z,8.20
2019-02-06T12:13:57.609Z,7.60
2019-02-06T12:14:57.630Z,8.80
2019-02-06T12:15:57.638Z,8.40
2019-02-06T12:16:57.656Z,8.80
2019-02-06T12:17:57.673Z,8.20
2019-02-06T12:18:57.689Z,7.60
2019-02-06T12:19:57.703Z,8.00
2019-02-06T12:20:57.720Z,7.90
2019-02-06T12:21:57.735Z,7.40
2019-02-06T12:22:57.755Z,8.10
2019-02-06T12:23:57.771Z,7.60
2019-02-06T12:24:57.784Z,7.20
2019-02-06T12:25:57.801Z,7.00
2019-02-06T12:26:57.826Z,8.00
2019-02-06T12:27:57.836Z,8.00
2019-02-06T12:28:57.860Z,7.70
2019-02-06T12:29:57.880Z,7.70
2019-02-06T12:30:57.883Z,7.60
2019-02-06T12:31:57.898Z,7.60
2019-02-06T12:32:57.911Z,7.40
2019-02-06T12:33:57.929Z,7.70
2019-02-06T12:34:57.946Z,7.80
2019-02-06T12:35:57.958Z,7.90
2019-02-06T12:36:57.979Z,7.90
2019-02-06T12:37:57.996Z,7.60
2019-02-06T12:38:58.011Z,7.20
2019-02-06T12:39:58.032Z,7.60
2019-02-06T12:40:58.044Z,8.30
2019-02-06T12:41:58.060Z,7.60
2019-02-06T12:42:58.075Z,7.20
2019-02-06T12:43:58.093Z,7.10
2019-02-06T12:44:59.114Z,6.80
2019-02-06T12:45:58.126Z,7.30
2019-02-06T12:46:58.144Z,7.30
2019-02-06T12:47:58.163Z,7.40
2019-02-06T12:48:58.173Z,7.70
2019-02-06T12:49:58.193Z,7.90
2019-02-06T12:50:58.209Z,7.40
2019-02-06T12:51:58.227Z,8.00
2019-02-06T12:52:58.263Z,7.30
2019-02-06T12:53:58.259Z,7.30
2019-02-06T12:54:58.275Z,7.10
2019-02-06T12:55:58.291Z,7.20
2019-02-06T12:56:58.308Z,6.90
2019-02-06T12:57:58.325Z,7.00
2019-02-06T12:58:58.345Z,6.80
2019-02-06T12:59:58.356Z,7.20
2019-02-06T13:00:58.374Z,7.10
2019-02-06T13:01:58.392Z,6.50
2019-02-06T13:03:00.077Z,7.10